createdAt,value
2023-03-27T00:00:36.505Z,2.90
2023-03-27T00:03:55.690Z,2.55
2023-03-27T00:06:59.606Z,1.40
2023-03-27T00:10:02.775Z,2.67
2023-03-27T00:13:08.398Z,2.47
2023-03-27T00:16:11.996Z,2.90
2023-03-27T00:19:14.985Z,3.25
2023-03-27T00:22:17.894Z,2.20
2023-03-27T00:25:22.678Z,3.12
2023-03-27T00:28:28.671Z,2.20
2023-03-27T00:31:31.612Z,2.10
2023-03-27T00:34:34.586Z,2.42
2023-03-27T00:37:37.745Z,3.40
2023-03-27T00:40:41.312Z,1.75
2023-03-27T00:43:44.296Z,2.92
2023-03-27T00:46:49.530Z,2.95
2023-03-27T00:49:52.940Z,1.75
2023-03-27T00:56:04.325Z,2.87
2023-03-27T00:59:12.598Z,2.87
2023-03-27T01:02:17.199Z,4.00
2023-03-27T01:05:21.462Z,4.53
2023-03-27T01:08:27.287Z,2.95
2023-03-27T01:11:51.977Z,3.08
2023-03-27T01:15:03.782Z,3.35
2023-03-27T01:18:34.473Z,4.30
2023-03-27T01:21:58.913Z,3.12
2023-03-27T01:25:35.836Z,3.17
2023-03-27T01:28:57.390Z,4.35
2023-03-27T01:32:26.243Z,3.00
2023-03-27T01:36:08.359Z,2.80
2023-03-27T01:39:36.236Z,4.00
2023-03-27T01:42:44.486Z,5.00
2023-03-27T01:45:47.451Z,4.22
2023-03-27T01:49:06.096Z,3.12
2023-03-27T01:52:15.133Z,2.60
2023-03-27T01:55:21.716Z,4.45
2023-03-27T01:58:36.164Z,2.97
2023-03-27T02:01:43.509Z,3.60
2023-03-27T02:04:55.473Z,5.35
2023-03-27T02:08:18.400Z,3.55
2023-03-27T02:11:26.217Z,2.93
2023-03-27T02:14:38.061Z,3.03
2023-03-27T02:17:48.942Z,2.92
2023-03-27T02:20:51.997Z,4.80
2023-03-27T02:23:59.082Z,3.47
2023-03-27T02:27:19.251Z,2.37
2023-03-27T02:30:46.315Z,3.10
2023-03-27T02:34:26.764Z,3.58
2023-03-27T02:37:48.221Z,2.45
2023-03-27T02:41:37.225Z,2.78
2023-03-27T02:44:56.684Z,2.30
2023-03-27T02:48:27.199Z,3.97
2023-03-27T02:51:42.707Z,4.75
2023-03-27T02:55:06.485Z,4.28
2023-03-27T02:58:14.422Z,2.28
2023-03-27T03:01:22.451Z,2.72
2023-03-27T03:04:41.704Z,2.17
2023-03-27T03:07:46.283Z,2.10
2023-03-27T03:10:49.630Z,3.10
2023-03-27T03:13:52.572Z,3.22
2023-03-27T03:16:55.521Z,2.72
2023-03-27T03:19:58.396Z,2.83
2023-03-27T03:23:02.569Z,3.05
2023-03-27T03:26:06.599Z,3.17
2023-03-27T03:29:11.904Z,2.58
2023-03-27T03:32:16.453Z,2.95
2023-03-27T03:35:19.478Z,1.90
2023-03-27T03:38:25.002Z,3.78
2023-03-27T03:41:28.301Z,3.28
2023-03-27T03:44:37.170Z,4.10
2023-03-27T03:47:41.670Z,2.95
2023-03-27T03:50:46.501Z,3.53
2023-03-27T03:53:49.320Z,5.82
2023-03-27T03:56:52.139Z,16.45
2023-03-27T03:59:58.223Z,9.10
2023-03-27T04:03:02.100Z,6.85
2023-03-27T04:06:07.659Z,6.00
2023-03-27T04:09:11.290Z,4.90
2023-03-27T04:12:15.603Z,5.30
2023-03-27T04:15:19.360Z,5.18
2023-03-27T04:18:32.448Z,4.82
2023-03-27T04:21:36.449Z,4.85
2023-03-27T04:24:40.170Z,6.22
2023-03-27T04:27:44.377Z,5.22
2023-03-27T04:30:50.493Z,5.32
2023-03-27T04:33:55.755Z,5.28
2023-03-27T04:36:58.975Z,6.35
2023-03-27T04:40:05.051Z,7.40
2023-03-27T04:43:08.703Z,4.85
2023-03-27T04:46:11.617Z,6.90
2023-03-27T04:49:20.360Z,5.80
2023-03-27T04:52:25.527Z,5.00
2023-03-27T04:55:28.652Z,6.50
2023-03-27T04:58:31.807Z,8.73
2023-03-27T05:01:36.355Z,5.60
2023-03-27T05:04:40.044Z,6.68
2023-03-27T05:07:47.935Z,6.28
2023-03-27T05:10:52.713Z,6.78
2023-03-27T05:13:55.698Z,5.80
2023-03-27T05:17:00.887Z,6.15
2023-03-27T05:20:04.270Z,5.62
2023-03-27T05:23:08.203Z,6.57
2023-03-27T05:26:12.930Z,6.28
2023-03-27T05:29:17.034Z,6.20
2023-03-27T05:32:20.159Z,6.50
2023-03-27T05:35:24.973Z,6.62
2023-03-27T05:38:28.010Z,7.18
2023-03-27T05:41:32.262Z,5.82
2023-03-27T05:44:37.472Z,4.65
2023-03-27T05:47:58.248Z,4.60
2023-03-27T05:51:01.541Z,5.18
2023-03-27T05:54:06.645Z,8.25
2023-03-27T05:57:09.609Z,17.75
2023-03-27T06:00:14.161Z,7.35
2023-03-27T06:03:20.188Z,4.65
2023-03-27T06:06:26.543Z,6.12
2023-03-27T06:09:30.787Z,4.15
2023-03-27T06:12:37.066Z,4.28
2023-03-27T06:15:43.729Z,3.90
2023-03-27T06:18:50.551Z,9.32
2023-03-27T06:21:53.573Z,9.32
2023-03-27T06:24:57.482Z,6.28
2023-03-27T06:28:01.726Z,4.43
2023-03-27T06:31:08.982Z,4.15
2023-03-27T06:34:15.117Z,4.60
2023-03-27T06:37:19.477Z,3.40
2023-03-27T06:40:24.539Z,3.25
2023-03-27T06:43:28.156Z,3.50
2023-03-27T06:46:44.568Z,3.37
2023-03-27T06:49:49.255Z,2.10
2023-03-27T06:52:52.232Z,10.15
2023-03-27T06:55:57.789Z,12.43
2023-03-27T06:59:00.962Z,5.40
2023-03-27T07:02:04.244Z,2.90
2023-03-27T07:05:08.456Z,2.45
2023-03-27T07:08:23.354Z,2.33
2023-03-27T07:11:29.433Z,2.25
2023-03-27T07:14:34.071Z,2.37
2023-03-27T07:17:48.183Z,5.57
2023-03-27T07:20:53.502Z,1.77
2023-03-27T07:23:56.442Z,2.47
2023-03-27T07:27:03.050Z,3.10
2023-03-27T07:30:08.162Z,1.75
2023-03-27T07:33:12.585Z,1.98
2023-03-27T07:36:16.214Z,6.72
2023-03-27T07:39:19.620Z,10.35
2023-03-27T07:42:22.325Z,3.33
2023-03-27T07:45:26.305Z,3.20
2023-03-27T07:48:32.314Z,2.83
2023-03-27T07:51:35.615Z,1.52
2023-03-27T07:54:38.265Z,2.05
2023-03-27T08:00:51.478Z,4.50
2023-03-27T08:03:55.027Z,2.00
2023-03-27T08:10:01.413Z,3.80
2023-03-27T08:13:12.618Z,2.72
2023-03-27T08:16:18.500Z,2.67
2023-03-27T08:19:22.085Z,2.33
2023-03-27T08:22:26.321Z,2.35
2023-03-27T08:25:36.412Z,3.35
2023-03-27T08:28:40.361Z,2.45
2023-03-27T08:34:47.154Z,3.00
2023-03-27T08:37:54.046Z,3.35
2023-03-27T08:40:59.203Z,3.22
2023-03-27T08:44:06.746Z,3.72
2023-03-27T08:47:23.632Z,2.95
2023-03-27T08:50:46.359Z,2.50
2023-03-27T08:53:57.153Z,2.20
2023-03-27T08:57:00.978Z,3.87
2023-03-27T09:00:20.645Z,2.10
2023-03-27T09:03:40.778Z,4.12
2023-03-27T09:07:00.834Z,3.08
2023-03-27T09:10:09.588Z,2.87
2023-03-27T09:13:29.380Z,3.08
2023-03-27T09:16:49.688Z,4.75
2023-03-27T09:20:19.616Z,3.85
2023-03-27T09:23:28.084Z,4.28
2023-03-27T09:26:36.425Z,2.67
2023-03-27T09:30:14.410Z,2.90
2023-03-27T09:33:19.800Z,2.22
2023-03-27T09:36:24.697Z,2.42
2023-03-27T09:39:34.108Z,2.78
2023-03-27T09:42:41.219Z,9.10
2023-03-27T09:45:47.720Z,3.70
2023-03-27T09:49:17.392Z,2.72
2023-03-27T09:52:34.235Z,2.62
2023-03-27T09:55:53.158Z,2.58
2023-03-27T09:58:59.121Z,2.30
2023-03-27T10:02:24.349Z,2.95
2023-03-27T10:05:28.452Z,3.03
2023-03-27T10:08:37.920Z,3.30
2023-03-27T10:11:41.694Z,2.25
2023-03-27T10:14:49.919Z,2.58
2023-03-27T10:17:56.328Z,3.12
2023-03-27T10:21:02.494Z,4.57
2023-03-27T10:24:34.641Z,1.80
2023-03-27T10:27:43.700Z,2.25
2023-03-27T10:31:04.301Z,2.33
2023-03-27T10:34:38.109Z,1.90
2023-03-27T10:37:50.324Z,2.35
2023-03-27T10:40:56.933Z,2.28
2023-03-27T10:44:16.755Z,2.25
2023-03-27T10:47:27.848Z,2.80
2023-03-27T10:50:44.214Z,1.85
2023-03-27T10:53:56.258Z,1.92
2023-03-27T10:57:12.627Z,3.97
2023-03-27T11:00:32.537Z,2.45
2023-03-27T11:03:45.728Z,3.33
2023-03-27T11:06:52.704Z,2.95
2023-03-27T11:10:16.949Z,4.07
2023-03-27T11:13:27.996Z,1.62
2023-03-27T11:16:42.581Z,3.83
2023-03-27T11:19:55.940Z,4.50
2023-03-27T11:23:15.542Z,1.42
2023-03-27T11:26:23.143Z,1.25
2023-03-27T11:29:30.593Z,1.73
2023-03-27T11:32:42.530Z,1.48
2023-03-27T11:35:54.001Z,1.25
2023-03-27T11:39:15.623Z,1.65
2023-03-27T11:42:32.594Z,0.88
2023-03-27T11:45:44.578Z,1.30
2023-03-27T11:49:14.792Z,2.50
2023-03-27T11:52:58.347Z,3.70
2023-03-27T11:56:10.702Z,2.10
2023-03-27T11:59:21.530Z,1.52
2023-03-27T12:02:49.350Z,2.25
2023-03-27T12:06:14.765Z,3.00
2023-03-27T12:09:29.877Z,2.97
2023-03-27T12:12:53.725Z,4.78
2023-03-27T12:16:20.982Z,7.18
2023-03-27T12:19:41.878Z,6.57
2023-03-27T12:22:59.063Z,11.87
2023-03-27T12:26:17.670Z,14.10
2023-03-27T12:29:49.168Z,15.98
2023-03-27T12:33:04.589Z,14.18
2023-03-27T12:36:14.086Z,18.37
2023-03-27T12:39:26.649Z,14.93
2023-03-27T12:42:44.506Z,9.47
2023-03-27T12:46:13.196Z,11.05
2023-03-27T12:49:16.156Z,8.68
2023-03-27T12:52:19.872Z,9.55
2023-03-27T12:55:32.584Z,7.10
2023-03-27T12:58:40.387Z,5.50
2023-03-27T13:01:51.717Z,4.60
2023-03-27T13:05:10.705Z,4.15
2023-03-27T13:11:33.682Z,3.55
2023-03-27T13:15:01.933Z,2.80
2023-03-27T13:18:23.266Z,2.60
2023-03-27T13:21:55.458Z,2.30
2023-03-27T13:25:26.263Z,2.37
2023-03-27T13:28:40.299Z,5.62
2023-03-27T13:31:44.690Z,2.28
2023-03-27T13:38:04.563Z,1.98
2023-03-27T13:41:45.905Z,2.22
2023-03-27T13:45:15.284Z,1.90
2023-03-27T13:49:04.832Z,4.43
2023-03-27T13:52:22.576Z,2.62
2023-03-27T13:55:57.566Z,2.28
2023-03-27T13:59:28.255Z,2.70
2023-03-27T14:02:40.545Z,2.58
2023-03-27T14:06:05.371Z,3.92
2023-03-27T14:09:26.739Z,3.08
2023-03-27T14:12:48.741Z,3.78
2023-03-27T14:16:45.034Z,3.20
2023-03-27T14:20:16.389Z,4.07
2023-03-27T14:23:26.576Z,4.00
2023-03-27T14:26:34.581Z,5.15
2023-03-27T14:29:38.172Z,6.50
2023-03-27T14:32:43.216Z,4.05
2023-03-27T14:35:54.003Z,3.65
2023-03-27T14:39:18.013Z,4.07
2023-03-27T14:42:22.151Z,5.57
2023-03-27T14:45:30.122Z,3.97
2023-03-27T14:48:39.088Z,3.70
2023-03-27T14:51:43.068Z,3.40
2023-03-27T14:54:55.270Z,3.47
2023-03-27T15:04:27.166Z,3.92
2023-03-27T15:07:34.846Z,3.47
2023-03-27T15:10:39.712Z,4.15
2023-03-27T15:13:45.762Z,2.50
2023-03-27T15:17:19.318Z,3.80
2023-03-27T15:20:25.328Z,4.57
2023-03-27T15:23:40.089Z,3.60
2023-03-27T15:26:49.103Z,5.25
2023-03-27T15:30:20.936Z,2.40
2023-03-27T15:33:37.105Z,3.17
2023-03-27T15:36:43.960Z,2.67
2023-03-27T15:40:26.771Z,2.33
2023-03-27T15:43:34.779Z,2.78
2023-03-27T15:46:58.054Z,3.33
2023-03-27T15:50:17.688Z,2.10
2023-03-27T15:53:33.191Z,2.65
2023-03-27T15:56:42.393Z,2.90
2023-03-27T15:59:52.253Z,2.53
2023-03-27T16:02:56.888Z,2.20
2023-03-27T16:06:01.807Z,2.62
2023-03-27T16:09:17.982Z,4.12
2023-03-27T16:12:25.773Z,5.40
2023-03-27T16:15:38.646Z,2.25
2023-03-27T16:18:41.655Z,2.63
2023-03-27T16:21:56.186Z,4.53
2023-03-27T16:25:01.369Z,2.33
2023-03-27T16:28:09.073Z,3.75
2023-03-27T16:31:18.054Z,2.37
2023-03-27T16:34:21.919Z,3.53
2023-03-27T16:37:27.174Z,3.42
2023-03-27T16:40:30.127Z,5.47
2023-03-27T16:43:33.090Z,2.45
2023-03-27T16:46:36.060Z,2.80
2023-03-27T16:49:39.963Z,4.10
2023-03-27T16:52:42.750Z,2.78
2023-03-27T16:55:45.948Z,3.28
2023-03-27T16:58:48.976Z,4.15
2023-03-27T17:01:51.934Z,6.72
2023-03-27T17:04:54.810Z,4.45
2023-03-27T17:07:57.592Z,4.10
2023-03-27T17:11:06.276Z,3.58
2023-03-27T17:14:09.760Z,3.25
2023-03-27T17:20:15.579Z,3.78
2023-03-27T17:23:19.018Z,2.78
2023-03-27T17:26:23.346Z,5.12
2023-03-27T17:29:27.414Z,3.85
2023-03-27T17:32:31.132Z,4.45
2023-03-27T17:35:34.394Z,2.97
2023-03-27T17:38:37.990Z,3.78
2023-03-27T17:41:40.885Z,3.03
2023-03-27T17:44:45.219Z,4.50
2023-03-27T17:47:48.332Z,6.87
2023-03-27T17:51:05.044Z,3.83
2023-03-27T17:54:11.747Z,2.75
2023-03-27T17:57:15.002Z,3.30
2023-03-27T18:00:19.728Z,3.47
2023-03-27T18:03:23.115Z,4.15
2023-03-27T18:06:26.375Z,3.08
2023-03-27T18:09:29.175Z,3.05
2023-03-27T18:12:35.076Z,3.20
2023-03-27T18:15:39.817Z,3.00
2023-03-27T18:18:42.694Z,3.03
2023-03-27T18:21:45.599Z,4.28
2023-03-27T18:24:48.545Z,4.25
2023-03-27T18:27:51.892Z,3.30
2023-03-27T18:34:04.962Z,2.45
2023-03-27T18:37:07.738Z,2.60
2023-03-27T18:40:12.637Z,4.20
2023-03-27T18:43:16.768Z,2.97
2023-03-27T18:46:19.692Z,3.37
2023-03-27T18:49:25.241Z,4.72
2023-03-27T18:52:28.746Z,5.75
2023-03-27T18:55:32.395Z,3.20
2023-03-27T18:58:36.059Z,3.28
2023-03-27T19:01:39.434Z,4.20
2023-03-27T19:04:42.487Z,2.90
2023-03-27T19:07:45.893Z,4.93
2023-03-27T19:10:49.236Z,4.03
2023-03-27T19:13:52.432Z,2.70
2023-03-27T19:16:55.770Z,3.15
2023-03-27T19:20:02.794Z,2.95
2023-03-27T19:23:06.086Z,4.62
2023-03-27T19:26:12.662Z,3.70
2023-03-27T19:29:16.301Z,3.08
2023-03-27T19:32:19.783Z,3.28
2023-03-27T19:35:22.659Z,3.47
2023-03-27T19:38:25.607Z,2.92
2023-03-27T19:41:28.457Z,4.30
2023-03-27T19:44:31.697Z,2.60
2023-03-27T19:47:35.041Z,10.45
2023-03-27T19:50:39.335Z,5.30
2023-03-27T19:53:43.447Z,2.65
2023-03-27T19:56:46.473Z,2.30
2023-03-27T19:59:50.338Z,3.03
2023-03-27T20:02:53.859Z,2.55
2023-03-27T20:06:06.887Z,3.90
2023-03-27T20:09:12.520Z,3.00
2023-03-27T20:12:16.098Z,2.50
2023-03-27T20:15:19.178Z,2.50
2023-03-27T20:18:22.285Z,2.78
2023-03-27T20:21:26.397Z,3.15
2023-03-27T20:24:29.226Z,2.08
2023-03-27T20:27:32.260Z,2.62
2023-03-27T20:30:37.414Z,3.28
2023-03-27T20:33:40.511Z,3.67
2023-03-27T20:36:43.453Z,3.28
2023-03-27T20:39:47.402Z,2.33
2023-03-27T20:43:02.860Z,3.50
2023-03-27T20:46:06.925Z,3.28
2023-03-27T20:49:10.255Z,4.65
2023-03-27T20:52:19.299Z,2.35
2023-03-27T20:55:32.819Z,2.28
2023-03-27T20:58:38.966Z,3.83
2023-03-27T21:01:45.312Z,2.40
2023-03-27T21:04:48.209Z,2.20
2023-03-27T21:07:51.327Z,2.72
2023-03-27T21:10:54.609Z,1.70
2023-03-27T21:13:57.550Z,2.90
2023-03-27T21:17:00.466Z,3.47
2023-03-27T21:20:05.415Z,4.57
2023-03-27T21:23:08.759Z,2.85
2023-03-27T21:26:11.658Z,4.03
2023-03-27T21:29:15.500Z,2.42
2023-03-27T21:32:18.728Z,3.95
2023-03-27T21:35:22.652Z,3.75
2023-03-27T21:38:25.617Z,5.15
2023-03-27T21:41:28.968Z,2.25
2023-03-27T21:44:31.912Z,2.30
2023-03-27T21:47:46.623Z,3.17
2023-03-27T21:50:50.262Z,2.22
2023-03-27T21:53:53.342Z,2.03
2023-03-27T21:56:56.327Z,2.70
2023-03-27T21:59:59.154Z,2.85
2023-03-27T22:03:02.190Z,2.30
2023-03-27T22:09:16.958Z,2.40
2023-03-27T22:12:20.509Z,2.75
2023-03-27T22:15:23.311Z,3.70
2023-03-27T22:18:26.374Z,3.80
2023-03-27T22:21:30.312Z,3.17
2023-03-27T22:24:33.882Z,2.62
2023-03-27T22:27:36.987Z,1.73
2023-03-27T22:30:41.709Z,2.90
2023-03-27T22:33:45.337Z,2.58
2023-03-27T22:36:48.464Z,2.55
2023-03-27T22:39:51.668Z,2.67
2023-03-27T22:42:54.786Z,3.37
2023-03-27T22:46:04.924Z,4.35
2023-03-27T22:49:08.132Z,3.17
2023-03-27T22:52:10.733Z,2.87
2023-03-27T22:55:14.118Z,2.53
2023-03-27T22:58:17.886Z,1.80
2023-03-27T23:01:21.033Z,3.28
2023-03-27T23:04:23.919Z,3.12
2023-03-27T23:07:26.986Z,2.75
2023-03-27T23:10:29.552Z,2.53
2023-03-27T23:13:34.751Z,3.83
2023-03-27T23:16:37.509Z,2.95
2023-03-27T23:19:40.928Z,3.22
2023-03-27T23:22:43.519Z,2.58
2023-03-27T23:25:46.617Z,1.90
2023-03-27T23:28:49.148Z,2.37
2023-03-27T23:31:52.393Z,2.95
2023-03-27T23:34:55.711Z,2.47
2023-03-27T23:37:58.766Z,2.45
2023-03-27T23:41:02.412Z,2.10
2023-03-27T23:44:05.695Z,3.08
2023-03-27T23:47:08.227Z,2.27
2023-03-27T23:50:11.300Z,3.25
2023-03-27T23:53:14.253Z,3.40
2023-03-27T23:59:19.607Z,2.40
